Astoria, OR (97103)

5:35 AM PST on February 11, 2016 (GMT -0800)
The Slope of South | | Change Station
CLOSE
Current Station
Personal Weather Station
Location: Astoria, OR
Elevation: 213 ft
Nearby Weather Stations

Elev 213 ft 46.18 °N, 123.84 °W | Updated 12 minutes ago

Rain
Rain
49.1 °F
Feels Like 49 °F
N
0.0
Wind Variable Wind from West

Today
High -- | Low -- °F
--% Chance of Precip.
Yesterday
High -- | Low -- °F
Precip. -- in
Pressure 30.14 in
Visibility 9.0 miles
Clouds Mostly Cloudy 6000 ft
Mostly Cloudy 8000 ft
Overcast 11000 ft
Windchill 49 °F
Dew Point 47 °F
Humidity 93%
Rainfall 0.00 in
Snow Depth Not available.
7:24 AM 5:34 PM
Waxing Crescent, 12% visible
METAR KAST 111255Z AUTO 00000KT 9SM BKN060 BKN080 OVC110 09/09 A3014 RMK AO2 SLP206 T00940089
Pressure 30.14 in
Visibility 9.0 miles
Clouds Mostly Cloudy 6000 ft
Mostly Cloudy 8000 ft
Overcast 11000 ft
Windchill 49 °F
Dew Point 47 °F
Humidity 93%
Rainfall 0.00 in
Snow Depth Not available.
7:24 AM 5:34 PM
Waxing Crescent, 12% visible
METAR KAST 111255Z AUTO 00000KT 9SM BKN060 BKN080 OVC110 09/09 A3014 RMK AO2 SLP206 T00940089

10-Day Weather Forecast

Almanac

Astronomy

Feb. 11, 2016 Rise Set
Actual Time
Civil Twilight
Nautical Twilight
Astronomical Twilight
Moon
Length of Visible Light
Length of Day
Tomorrow will be .
, % of the Moon is Illuminated

Today's Extremes

State Highs State Lows

Community

WunderPhotos

Upload Photos

1,892,045 photos uploaded!

WunderBlog® & News

Nearby

Air Quality

  Air Quality AQ Index Pollutant
Not available.

Snow Depth

Station Depth Elevation

Earthquake Activity

City Distance Mag. Time & Date
Minimum magnitude displayed is 2.5.

Coastal Water Temperatures

Place Temperature

Stations

Nearby Weather Stations

Station Location Temp. Windchill Dew Point Humidity Wind Precip. Elev Updated Type
                   

Watches & Warnings

There are currently no watches in effect.